sensor_id;sensor_type;location;lat;lon;timestamp;pressure;altitude;pressure_sealevel;temperature;humidity
15529;BME280;7866;52.280;9.500;2023-04-08T00:02:41;100957.38;;;6.98;74.58
15529;BME280;7866;52.280;9.500;2023-04-08T00:07:43;100965.22;;;7.00;74.29
15529;BME280;7866;52.280;9.500;2023-04-08T00:12:45;100957.03;;;6.91;75.84
15529;BME280;7866;52.280;9.500;2023-04-08T00:17:49;100957.03;;;7.12;73.54
15529;BME280;7866;52.280;9.500;2023-04-08T00:22:50;100957.56;;;7.06;73.02
15529;BME280;7866;52.280;9.500;2023-04-08T00:27:52;100952.91;;;6.99;74.39
15529;BME280;7866;52.280;9.500;2023-04-08T00:32:55;100962.97;;;6.95;73.06
15529;BME280;7866;52.280;9.500;2023-04-08T00:37:57;100960.41;;;6.94;74.15
15529;BME280;7866;52.280;9.500;2023-04-08T00:42:59;100961.19;;;6.84;75.72
15529;BME280;7866;52.280;9.500;2023-04-08T00:48:03;100961.19;;;6.84;75.83
15529;BME280;7866;52.280;9.500;2023-04-08T00:53:05;100964.94;;;6.82;76.40
15529;BME280;7866;52.280;9.500;2023-04-08T00:58:06;100957.84;;;6.82;76.97
15529;BME280;7866;52.280;9.500;2023-04-08T01:03:15;100965.34;;;6.77;76.66
15529;BME280;7866;52.280;9.500;2023-04-08T01:08:17;100963.81;;;6.75;76.97
15529;BME280;7866;52.280;9.500;2023-04-08T01:13:21;100958.59;;;6.73;76.29
15529;BME280;7866;52.280;9.500;2023-04-08T01:18:30;100950.53;;;6.84;75.71
15529;BME280;7866;52.280;9.500;2023-04-08T01:23:39;100948.78;;;6.74;75.43
15529;BME280;7866;52.280;9.500;2023-04-08T01:28:43;100947.53;;;6.78;75.43
15529;BME280;7866;52.280;9.500;2023-04-08T01:33:45;100955.69;;;6.76;76.45
15529;BME280;7866;52.280;9.500;2023-04-08T01:38:49;100960.41;;;6.73;77.23
15529;BME280;7866;52.280;9.500;2023-04-08T01:43:52;100970.72;;;6.66;77.35
15529;BME280;7866;52.280;9.500;2023-04-08T01:48:55;100964.34;;;6.57;78.99
15529;BME280;7866;52.280;9.500;2023-04-08T01:53:58;100967.66;;;6.50;80.04
15529;BME280;7866;52.280;9.500;2023-04-08T01:59:04;100965.25;;;6.47;81.66
15529;BME280;7866;52.280;9.500;2023-04-08T02:04:07;100962.84;;;6.44;82.58
15529;BME280;7866;52.280;9.500;2023-04-08T02:09:09;100957.88;;;6.71;79.53
15529;BME280;7866;52.280;9.500;2023-04-08T02:14:12;100954.03;;;6.64;79.11
15529;BME280;7866;52.280;9.500;2023-04-08T02:19:18;100948.66;;;6.54;78.69
15529;BME280;7866;52.280;9.500;2023-04-08T02:24:21;100952.81;;;6.47;80.21
15529;BME280;7866;52.280;9.500;2023-04-08T02:29:25;100960.84;;;6.57;79.54
15529;BME280;7866;52.280;9.500;2023-04-08T02:34:28;100964.94;;;6.61;78.92
15529;BME280;7866;52.280;9.500;2023-04-08T02:39:31;100957.78;;;6.61;78.39
15529;BME280;7866;52.280;9.500;2023-04-08T02:44:34;100960.22;;;6.64;77.54
15529;BME280;7866;52.280;9.500;2023-04-08T02:49:35;100958.13;;;6.68;76.36
15529;BME280;7866;52.280;9.500;2023-04-08T02:54:37;100964.38;;;6.46;78.63
15529;BME280;7866;52.280;9.500;2023-04-08T02:59:40;100965.63;;;6.42;79.09
15529;BME280;7866;52.280;9.500;2023-04-08T03:04:42;100969.78;;;6.35;80.85
15529;BME280;7866;52.280;9.500;2023-04-08T03:09:43;100977.38;;;6.39;79.84
15529;BME280;7866;52.280;9.500;2023-04-08T03:14:46;100978.91;;;6.42;79.43
15529;BME280;7866;52.280;9.500;2023-04-08T03:19:48;100984.75;;;6.36;80.69
15529;BME280;7866;52.280;9.500;2023-04-08T03:24:50;100987.19;;;6.39;80.46
15529;BME280;7866;52.280;9.500;2023-04-08T03:29:53;100991.91;;;6.35;78.50
15529;BME280;7866;52.280;9.500;2023-04-08T03:34:54;100988.63;;;6.43;78.71
15529;BME280;7866;52.280;9.500;2023-04-08T03:39:56;100994.44;;;6.37;79.83
15529;BME280;7866;52.280;9.500;2023-04-08T03:44:59;100983.19;;;6.33;80.32
15529;BME280;7866;52.280;9.500;2023-04-08T03:50:00;100988.50;;;6.33;79.78
15529;BME280;7866;52.280;9.500;2023-04-08T03:55:03;100989.63;;;6.31;80.60
15529;BME280;7866;52.280;9.500;2023-04-08T04:00:07;100998.81;;;6.27;79.56
15529;BME280;7866;52.280;9.500;2023-04-08T04:05:09;100997.06;;;6.48;79.92
15529;BME280;7866;52.280;9.500;2023-04-08T04:10:11;101007.25;;;6.32;80.60
15529;BME280;7866;52.280;9.500;2023-04-08T04:15:14;101004.00;;;6.28;80.25
15529;BME280;7866;52.280;9.500;2023-04-08T04:20:16;101004.25;;;6.25;81.41
15529;BME280;7866;52.280;9.500;2023-04-08T04:25:18;101020.09;;;6.27;80.92
15529;BME280;7866;52.280;9.500;2023-04-08T04:30:21;101008.59;;;6.26;80.72
15529;BME280;7866;52.280;9.500;2023-04-08T04:35:22;101009.31;;;6.28;81.24
15529;BME280;7866;52.280;9.500;2023-04-08T04:40:24;101006.75;;;6.38;79.61
15529;BME280;7866;52.280;9.500;2023-04-08T04:45:27;101019.00;;;6.29;79.98
15529;BME280;7866;52.280;9.500;2023-04-08T04:50:29;101018.25;;;6.38;80.10
15529;BME280;7866;52.280;9.500;2023-04-08T04:55:31;101028.31;;;6.35;81.48
15529;BME280;7866;52.280;9.500;2023-04-08T05:00:34;101041.13;;;6.30;81.35
15529;BME280;7866;52.280;9.500;2023-04-08T05:05:35;101045.97;;;6.25;82.15
15529;BME280;7866;52.280;9.500;2023-04-08T05:10:39;101037.22;;;6.45;81.42
15529;BME280;7866;52.280;9.500;2023-04-08T05:15:42;101051.47;;;6.55;80.29
15529;BME280;7866;52.280;9.500;2023-04-08T05:20:44;101039.53;;;6.38;81.42
15529;BME280;7866;52.280;9.500;2023-04-08T05:25:46;101046.22;;;6.22;83.31
15529;BME280;7866;52.280;9.500;2023-04-08T05:30:50;101052.25;;;6.24;84.21
15529;BME280;7866;52.280;9.500;2023-04-08T05:35:51;101059.94;;;6.49;83.03
15529;BME280;7866;52.280;9.500;2023-04-08T05:40:53;101059.72;;;6.41;82.39
15529;BME280;7866;52.280;9.500;2023-04-08T05:45:56;101063.56;;;6.48;81.61
15529;BME280;7866;52.280;9.500;2023-04-08T05:50:57;101075.91;;;6.49;82.80
15529;BME280;7866;52.280;9.500;2023-04-08T05:55:59;101075.28;;;6.57;83.12
15529;BME280;7866;52.280;9.500;2023-04-08T06:01:02;101074.75;;;6.31;83.53
15529;BME280;7866;52.280;9.500;2023-04-08T06:06:08;101075.44;;;6.44;83.56
15529;BME280;7866;52.280;9.500;2023-04-08T06:11:10;101080.91;;;6.31;87.22
15529;BME280;7866;52.280;9.500;2023-04-08T06:16:15;101082.94;;;6.39;86.29
15529;BME280;7866;52.280;9.500;2023-04-08T06:21:17;101084.84;;;6.48;85.02
15529;BME280;7866;52.280;9.500;2023-04-08T06:26:19;101098.59;;;6.64;84.12
15529;BME280;7866;52.280;9.500;2023-04-08T06:31:22;101100.28;;;6.65;85.84
15529;BME280;7866;52.280;9.500;2023-04-08T06:36:24;101108.28;;;6.65;85.68
15529;BME280;7866;52.280;9.500;2023-04-08T06:41:25;101114.72;;;6.63;86.74
15529;BME280;7866;52.280;9.500;2023-04-08T06:46:28;101114.94;;;6.60;88.38
15529;BME280;7866;52.280;9.500;2023-04-08T06:51:30;101120.41;;;6.58;89.59
15529;BME280;7866;52.280;9.500;2023-04-08T06:56:32;101126.69;;;6.57;90.32
15529;BME280;7866;52.280;9.500;2023-04-08T07:01:35;101124.28;;;6.54;90.10
15529;BME280;7866;52.280;9.500;2023-04-08T07:06:36;101130.41;;;6.66;89.95
15529;BME280;7866;52.280;9.500;2023-04-08T07:11:38;101122.22;;;6.90;88.12
15529;BME280;7866;52.280;9.500;2023-04-08T07:16:41;101132.69;;;7.14;86.50
15529;BME280;7866;52.280;9.500;2023-04-08T07:21:42;101135.03;;;7.07;86.52
15529;BME280;7866;52.280;9.500;2023-04-08T07:26:44;101138.59;;;7.18;85.26
15529;BME280;7866;52.280;9.500;2023-04-08T07:31:47;101143.00;;;7.07;85.63
15529;BME280;7866;52.280;9.500;2023-04-08T07:36:49;101145.13;;;7.25;84.66
15529;BME280;7866;52.280;9.500;2023-04-08T07:41:50;101135.22;;;7.15;85.39
15529;BME280;7866;52.280;9.500;2023-04-08T07:46:54;101153.72;;;7.49;84.89
15529;BME280;7866;52.280;9.500;2023-04-08T07:51:55;101154.66;;;7.59;83.12
15529;BME280;7866;52.280;9.500;2023-04-08T07:56:57;101162.69;;;7.48;84.06
15529;BME280;7866;52.280;9.500;2023-04-08T08:02:00;101166.88;;;7.30;84.11
15529;BME280;7866;52.280;9.500;2023-04-08T08:07:02;101164.63;;;7.14;84.90
15529;BME280;7866;52.280;9.500;2023-04-08T08:12:03;101167.03;;;7.49;84.23
15529;BME280;7866;52.280;9.500;2023-04-08T08:17:06;101171.72;;;7.57;82.89
15529;BME280;7866;52.280;9.500;2023-04-08T08:22:10;101180.00;;;7.75;81.67
15529;BME280;7866;52.280;9.500;2023-04-08T08:27:12;101172.91;;;7.64;81.51
15529;BME280;7866;52.280;9.500;2023-04-08T08:32:15;101183.56;;;7.64;81.43
15529;BME280;7866;52.280;9.500;2023-04-08T08:37:16;101174.69;;;7.75;81.55
15529;BME280;7866;52.280;9.500;2023-04-08T08:42:19;101186.47;;;7.82;80.50
15529;BME280;7866;52.280;9.500;2023-04-08T08:47:22;101193.41;;;7.63;81.39
15529;BME280;7866;52.280;9.500;2023-04-08T08:52:25;101199.72;;;7.83;81.22
15529;BME280;7866;52.280;9.500;2023-04-08T08:57:26;101201.50;;;8.04;81.25
15529;BME280;7866;52.280;9.500;2023-04-08T09:02:30;101201.97;;;8.09;81.42
15529;BME280;7866;52.280;9.500;2023-04-08T09:07:35;101201.19;;;7.97;81.28
15529;BME280;7866;52.280;9.500;2023-04-08T09:12:52;101206.00;;;8.03;81.04
15529;BME280;7866;52.280;9.500;2023-04-08T09:17:57;101211.97;;;8.17;80.74
15529;BME280;7866;52.280;9.500;2023-04-08T09:23:00;101209.56;;;8.13;80.04
15529;BME280;7866;52.280;9.500;2023-04-08T09:28:02;101223.88;;;8.12;81.20
15529;BME280;7866;52.280;9.500;2023-04-08T09:33:05;101228.78;;;8.07;81.63
15529;BME280;7866;52.280;9.500;2023-04-08T09:38:06;101234.75;;;8.21;81.44
15529;BME280;7866;52.280;9.500;2023-04-08T09:43:08;101242.31;;;8.15;80.87
15529;BME280;7866;52.280;9.500;2023-04-08T09:48:17;101239.78;;;8.14;81.35
15529;BME280;7866;52.280;9.500;2023-04-08T09:53:27;101246.34;;;8.31;81.23
15529;BME280;7866;52.280;9.500;2023-04-08T09:58:33;101252.78;;;8.28;81.13
15529;BME280;7866;52.280;9.500;2023-04-08T10:03:45;101258.66;;;8.22;81.26
15529;BME280;7866;52.280;9.500;2023-04-08T10:08:48;101248.34;;;8.18;82.20
15529;BME280;7866;52.280;9.500;2023-04-08T10:13:50;101245.19;;;8.33;82.30
15529;BME280;7866;52.280;9.500;2023-04-08T10:18:54;101242.19;;;8.38;81.16
15529;BME280;7866;52.280;9.500;2023-04-08T10:23:57;101239.59;;;8.57;80.59
15529;BME280;7866;52.280;9.500;2023-04-08T10:34:52;101259.75;;;8.71;79.54
15529;BME280;7866;52.280;9.500;2023-04-08T10:39:54;101253.78;;;8.88;78.77
15529;BME280;7866;52.280;9.500;2023-04-08T10:44:59;101252.31;;;9.25;77.63
15529;BME280;7866;52.280;9.500;2023-04-08T10:50:13;101246.91;;;9.05;78.07
15529;BME280;7866;52.280;9.500;2023-04-08T10:55:15;101255.19;;;8.93;79.90
15529;BME280;7866;52.280;9.500;2023-04-08T11:00:18;101261.78;;;8.88;79.74
15529;BME280;7866;52.280;9.500;2023-04-08T11:05:22;101251.78;;;8.81;80.03
15529;BME280;7866;52.280;9.500;2023-04-08T11:10:24;101261.09;;;8.86;80.20
15529;BME280;7866;52.280;9.500;2023-04-08T11:15:28;101268.94;;;8.78;80.66
15529;BME280;7866;52.280;9.500;2023-04-08T11:20:32;101259.44;;;8.95;80.44
15529;BME280;7866;52.280;9.500;2023-04-08T11:25:36;101262.09;;;9.05;79.63
15529;BME280;7866;52.280;9.500;2023-04-08T11:30:38;101254.13;;;9.15;79.30
15529;BME280;7866;52.280;9.500;2023-04-08T11:35:42;101261.28;;;9.04;80.12
15529;BME280;7866;52.280;9.500;2023-04-08T11:40:51;101264.16;;;8.82;80.78
15529;BME280;7866;52.280;9.500;2023-04-08T11:45:53;101264.16;;;8.82;81.49
15529;BME280;7866;52.280;9.500;2023-04-08T11:51:03;101272.06;;;8.93;80.95
15529;BME280;7866;52.280;9.500;2023-04-08T11:56:17;101273.28;;;8.79;81.35
15529;BME280;7866;52.280;9.500;2023-04-08T12:01:19;101276.38;;;8.75;80.85
15529;BME280;7866;52.280;9.500;2023-04-08T12:06:22;101271.38;;;8.91;81.54
15529;BME280;7866;52.280;9.500;2023-04-08T12:11:26;101286.72;;;8.99;81.42
15529;BME280;7866;52.280;9.500;2023-04-08T12:16:28;101303.16;;;8.94;80.80
15529;BME280;7866;52.280;9.500;2023-04-08T12:21:31;101302.16;;;8.95;81.35
15529;BME280;7866;52.280;9.500;2023-04-08T12:26:33;101302.59;;;8.70;82.55
15529;BME280;7866;52.280;9.500;2023-04-08T12:31:35;101292.47;;;8.94;82.08
15529;BME280;7866;52.280;9.500;2023-04-08T12:36:39;101285.38;;;9.14;80.13
15529;BME280;7866;52.280;9.500;2023-04-08T12:41:41;101288.81;;;9.05;80.63
15529;BME280;7866;52.280;9.500;2023-04-08T12:46:42;101280.56;;;9.08;81.53
15529;BME280;7866;52.280;9.500;2023-04-08T12:51:45;101278.13;;;8.95;81.75
15529;BME280;7866;52.280;9.500;2023-04-08T12:56:47;101263.19;;;8.93;81.79
15529;BME280;7866;52.280;9.500;2023-04-08T13:01:49;101283.72;;;8.92;81.77
15529;BME280;7866;52.280;9.500;2023-04-08T13:06:51;101276.88;;;8.99;80.76
15529;BME280;7866;52.280;9.500;2023-04-08T13:11:53;101284.88;;;8.99;81.76
15529;BME280;7866;52.280;9.500;2023-04-08T13:16:55;101280.66;;;8.97;82.28
15529;BME280;7866;52.280;9.500;2023-04-08T13:21:58;101277.63;;;9.21;81.62
15529;BME280;7866;52.280;9.500;2023-04-08T13:27:00;101276.63;;;9.12;80.95
15529;BME280;7866;52.280;9.500;2023-04-08T13:32:03;101272.84;;;9.24;80.94
15529;BME280;7866;52.280;9.500;2023-04-08T13:37:06;101266.66;;;9.33;79.86
15529;BME280;7866;52.280;9.500;2023-04-08T13:42:08;101265.56;;;9.36;80.13
15529;BME280;7866;52.280;9.500;2023-04-08T13:47:09;101264.31;;;9.50;79.31
15529;BME280;7866;52.280;9.500;2023-04-08T13:52:13;101272.59;;;9.37;79.32
15529;BME280;7866;52.280;9.500;2023-04-08T13:57:15;101276.34;;;9.15;80.60
15529;BME280;7866;52.280;9.500;2023-04-08T14:02:17;101264.44;;;9.48;80.68
15529;BME280;7866;52.280;9.500;2023-04-08T14:07:20;101260.81;;;9.59;79.30
15529;BME280;7866;52.280;9.500;2023-04-08T14:12:21;101267.28;;;9.47;79.73
15529;BME280;7866;52.280;9.500;2023-04-08T14:17:23;101271.94;;;9.54;79.08
15529;BME280;7866;52.280;9.500;2023-04-08T14:22:26;101274.88;;;9.42;79.15
15529;BME280;7866;52.280;9.500;2023-04-08T14:27:28;101267.56;;;9.63;79.19
15529;BME280;7866;52.280;9.500;2023-04-08T14:32:29;101275.16;;;9.68;79.03
15529;BME280;7866;52.280;9.500;2023-04-08T14:37:32;101272.34;;;9.50;79.67
15529;BME280;7866;52.280;9.500;2023-04-08T14:42:37;101277.97;;;9.56;79.50
15529;BME280;7866;52.280;9.500;2023-04-08T14:47:39;101282.50;;;9.66;79.22
15529;BME280;7866;52.280;9.500;2023-04-08T14:52:42;101285.88;;;9.58;79.56
15529;BME280;7866;52.280;9.500;2023-04-08T14:57:45;101278.22;;;9.34;80.35
15529;BME280;7866;52.280;9.500;2023-04-08T15:02:47;101285.41;;;9.43;80.33
15529;BME280;7866;52.280;9.500;2023-04-08T15:07:50;101280.91;;;9.53;79.04
15529;BME280;7866;52.280;9.500;2023-04-08T15:12:51;101285.00;;;9.48;79.68
15529;BME280;7866;52.280;9.500;2023-04-08T15:17:53;101279.34;;;9.31;80.51
15529;BME280;7866;52.280;9.500;2023-04-08T15:22:56;101295.28;;;9.43;80.39
15529;BME280;7866;52.280;9.500;2023-04-08T15:27:58;101293.72;;;9.40;80.54
15529;BME280;7866;52.280;9.500;2023-04-08T15:33:02;101287.53;;;9.49;79.27
15529;BME280;7866;52.280;9.500;2023-04-08T15:38:05;101295.38;;;9.41;79.79
15529;BME280;7866;52.280;9.500;2023-04-08T15:43:07;101301.56;;;9.22;81.05
15529;BME280;7866;52.280;9.500;2023-04-08T15:48:10;101297.31;;;9.20;80.81
15529;BME280;7866;52.280;9.500;2023-04-08T15:53:13;101300.41;;;9.25;80.60
15529;BME280;7866;52.280;9.500;2023-04-08T15:58:15;101310.31;;;9.34;80.62
15529;BME280;7866;52.280;9.500;2023-04-08T16:03:17;101308.03;;;9.29;80.39
15529;BME280;7866;52.280;9.500;2023-04-08T16:08:20;101313.50;;;9.18;80.79
15529;BME280;7866;52.280;9.500;2023-04-08T16:13:22;101308.59;;;9.23;80.51
15529;BME280;7866;52.280;9.500;2023-04-08T16:18:24;101306.91;;;9.22;80.84
15529;BME280;7866;52.280;9.500;2023-04-08T16:23:27;101312.47;;;9.09;81.48
15529;BME280;7866;52.280;9.500;2023-04-08T16:28:29;101318.09;;;9.06;81.68
15529;BME280;7866;52.280;9.500;2023-04-08T16:33:31;101321.22;;;9.11;81.27
15529;BME280;7866;52.280;9.500;2023-04-08T16:38:34;101327.53;;;9.10;81.08
15529;BME280;7866;52.280;9.500;2023-04-08T16:43:36;101327.38;;;9.02;81.62
15529;BME280;7866;52.280;9.500;2023-04-08T16:48:37;101332.97;;;8.99;82.02
15529;BME280;7866;52.280;9.500;2023-04-08T16:53:42;101338.75;;;9.04;81.74
15529;BME280;7866;52.280;9.500;2023-04-08T16:58:44;101334.84;;;9.08;81.33
15529;BME280;7866;52.280;9.500;2023-04-08T17:03:46;101337.75;;;9.05;81.55
15529;BME280;7866;52.280;9.500;2023-04-08T17:08:50;101341.44;;;9.04;80.98
15529;BME280;7866;52.280;9.500;2023-04-08T17:13:52;101344.38;;;9.01;81.08
15529;BME280;7866;52.280;9.500;2023-04-08T17:18:53;101340.19;;;9.08;80.87
15529;BME280;7866;52.280;9.500;2023-04-08T17:23:56;101338.75;;;9.04;80.58
15529;BME280;7866;52.280;9.500;2023-04-08T17:28:58;101335.59;;;8.89;81.81
15529;BME280;7866;52.280;9.500;2023-04-08T17:34:00;101342.75;;;8.89;82.11
15529;BME280;7866;52.280;9.500;2023-04-08T17:39:03;101335.16;;;8.84;81.88
15529;BME280;7866;52.280;9.500;2023-04-08T17:44:04;101351.44;;;8.81;82.17
15529;BME280;7866;52.280;9.500;2023-04-08T17:49:06;101351.22;;;8.63;83.07
15529;BME280;7866;52.280;9.500;2023-04-08T17:54:11;101361.75;;;8.65;82.81
15529;BME280;7866;52.280;9.500;2023-04-08T17:59:13;101364.31;;;8.67;82.18
15529;BME280;7866;52.280;9.500;2023-04-08T18:04:15;101370.81;;;8.74;82.08
15529;BME280;7866;52.280;9.500;2023-04-08T18:09:18;101366.50;;;8.61;82.24
15529;BME280;7866;52.280;9.500;2023-04-08T18:14:19;101369.91;;;8.63;81.71
15529;BME280;7866;52.280;9.500;2023-04-08T18:19:21;101378.44;;;8.57;81.81
15529;BME280;7866;52.280;9.500;2023-04-08T18:24:25;101382.34;;;8.53;81.89
15529;BME280;7866;52.280;9.500;2023-04-08T18:29:26;101386.72;;;8.54;82.02
15529;BME280;7866;52.280;9.500;2023-04-08T18:34:28;101389.69;;;8.61;81.45
15529;BME280;7866;52.280;9.500;2023-04-08T18:39:32;101399.03;;;8.67;80.57
15529;BME280;7866;52.280;9.500;2023-04-08T18:44:34;101400.31;;;8.72;80.37
15529;BME280;7866;52.280;9.500;2023-04-08T18:49:35;101409.50;;;8.58;80.17
15529;BME280;7866;52.280;9.500;2023-04-08T18:54:39;101406.19;;;8.66;80.34
15529;BME280;7866;52.280;9.500;2023-04-08T18:59:40;101410.41;;;8.69;79.77
15529;BME280;7866;52.280;9.500;2023-04-08T19:04:42;101403.19;;;8.59;80.33
15529;BME280;7866;52.280;9.500;2023-04-08T19:09:45;101405.72;;;8.61;80.46
15529;BME280;7866;52.280;9.500;2023-04-08T19:14:47;101407.28;;;8.63;79.93
15529;BME280;7866;52.280;9.500;2023-04-08T19:19:48;101408.00;;;8.66;79.99
15529;BME280;7866;52.280;9.500;2023-04-08T19:24:52;101399.44;;;8.62;79.77
15529;BME280;7866;52.280;9.500;2023-04-08T19:29:54;101405.31;;;8.66;79.43
15529;BME280;7866;52.280;9.500;2023-04-08T19:34:55;101407.50;;;8.51;80.07
15529;BME280;7866;52.280;9.500;2023-04-08T19:39:58;101410.56;;;8.46;80.57
15529;BME280;7866;52.280;9.500;2023-04-08T19:45:00;101407.00;;;8.46;80.44
15529;BME280;7866;52.280;9.500;2023-04-08T19:50:02;101407.88;;;8.46;80.11
15529;BME280;7866;52.280;9.500;2023-04-08T19:55:06;101408.41;;;8.29;80.10
15529;BME280;7866;52.280;9.500;2023-04-08T20:00:10;101410.84;;;8.21;80.45
15529;BME280;7866;52.280;9.500;2023-04-08T20:05:12;101418.09;;;7.98;80.97
15529;BME280;7866;52.280;9.500;2023-04-08T20:10:16;101419.22;;;7.84;81.63
15529;BME280;7866;52.280;9.500;2023-04-08T20:15:19;101420.59;;;7.56;82.50
15529;BME280;7866;52.280;9.500;2023-04-08T20:20:21;101424.13;;;7.34;82.72
15529;BME280;7866;52.280;9.500;2023-04-08T20:25:24;101431.53;;;7.19;82.92
15529;BME280;7866;52.280;9.500;2023-04-08T20:30:26;101433.69;;;7.03;83.41
15529;BME280;7866;52.280;9.500;2023-04-08T20:35:28;101427.09;;;6.73;83.68
15529;BME280;7866;52.280;9.500;2023-04-08T20:40:31;101436.94;;;6.49;83.70
15529;BME280;7866;52.280;9.500;2023-04-08T20:45:32;101445.84;;;6.36;84.69
15529;BME280;7866;52.280;9.500;2023-04-08T20:50:34;101431.34;;;6.40;85.00
15529;BME280;7866;52.280;9.500;2023-04-08T20:55:37;101432.41;;;6.27;84.61
15529;BME280;7866;52.280;9.500;2023-04-08T21:00:38;101430.88;;;6.11;84.68
15529;BME280;7866;52.280;9.500;2023-04-08T21:05:40;101429.13;;;5.99;85.16
15529;BME280;7866;52.280;9.500;2023-04-08T21:10:43;101436.25;;;5.99;85.91
15529;BME280;7866;52.280;9.500;2023-04-08T21:15:45;101437.72;;;6.03;85.53
15529;BME280;7866;52.280;9.500;2023-04-08T21:20:46;101432.16;;;6.06;84.68
15529;BME280;7866;52.280;9.500;2023-04-08T21:25:50;101430.94;;;5.86;85.34
15529;BME280;7866;52.280;9.500;2023-04-08T21:30:52;101438.06;;;5.85;85.45
15529;BME280;7866;52.280;9.500;2023-04-08T21:35:54;101435.78;;;5.68;84.83
15529;BME280;7866;52.280;9.500;2023-04-08T21:40:57;101440.72;;;5.49;85.41
15529;BME280;7866;52.280;9.500;2023-04-08T21:45:59;101442.94;;;5.55;84.92
15529;BME280;7866;52.280;9.500;2023-04-08T21:51:00;101449.09;;;5.42;85.34
15529;BME280;7866;52.280;9.500;2023-04-08T21:56:04;101448.16;;;5.43;85.63
15529;BME280;7866;52.280;9.500;2023-04-08T22:01:07;101447.63;;;5.38;85.46
15529;BME280;7866;52.280;9.500;2023-04-08T22:06:08;101449.66;;;5.48;85.87
15529;BME280;7866;52.280;9.500;2023-04-08T22:11:11;101457.88;;;5.68;85.54
15529;BME280;7866;52.280;9.500;2023-04-08T22:16:13;101451.13;;;5.88;85.23
15529;BME280;7866;52.280;9.500;2023-04-08T22:21:15;101450.63;;;5.96;85.28
15529;BME280;7866;52.280;9.500;2023-04-08T22:26:18;101447.63;;;5.88;84.16
15529;BME280;7866;52.280;9.500;2023-04-08T22:31:20;101448.31;;;5.79;85.01
15529;BME280;7866;52.280;9.500;2023-04-08T22:36:22;101444.78;;;5.78;85.20
15529;BME280;7866;52.280;9.500;2023-04-08T22:41:25;101446.19;;;5.71;85.02
15529;BME280;7866;52.280;9.500;2023-04-08T22:46:26;101437.00;;;5.51;85.42
15529;BME280;7866;52.280;9.500;2023-04-08T22:51:28;101435.22;;;5.39;85.35
15529;BME280;7866;52.280;9.500;2023-04-08T22:56:31;101440.09;;;5.32;85.11
15529;BME280;7866;52.280;9.500;2023-04-08T23:01:33;101433.66;;;5.11;86.27
15529;BME280;7866;52.280;9.500;2023-04-08T23:06:35;101431.94;;;5.10;85.86
15529;BME280;7866;52.280;9.500;2023-04-08T23:11:38;101431.63;;;5.02;85.88
15529;BME280;7866;52.280;9.500;2023-04-08T23:16:39;101434.16;;;4.90;85.75
15529;BME280;7866;52.280;9.500;2023-04-08T23:21:41;101437.91;;;4.88;85.23
15529;BME280;7866;52.280;9.500;2023-04-08T23:26:44;101436.59;;;4.81;85.78
15529;BME280;7866;52.280;9.500;2023-04-08T23:31:47;101428.13;;;4.76;85.62
15529;BME280;7866;52.280;9.500;2023-04-08T23:36:49;101430.44;;;4.67;85.48
15529;BME280;7866;52.280;9.500;2023-04-08T23:41:52;101429.78;;;4.51;85.50
15529;BME280;7866;52.280;9.500;2023-04-08T23:46:54;101428.69;;;4.41;86.20
15529;BME280;7866;52.280;9.500;2023-04-08T23:51:55;101425.91;;;4.42;85.92
15529;BME280;7866;52.280;9.500;2023-04-08T23:56:58;101431.66;;;4.36;85.72
